Time;durP1;ratioP1;P1;durP2;ratioP2;P2;SDS_P1;SDS_P2;PMS_P1;PMS_P2;Temp;Humidity;BMP_temperature;BMP_pressure;BME280_temperature;BME280_humidity;BME280_pressure;Samples;Min_cycle;Max_cycle;Signal;HPM_P1;HPM_P2
2022/03/20 00:00:34;;;;;;;49.03;19.00;;;;;;;1.14;39.73;102945.19;4198140;28;20236;-66
2022/03/20 00:03:07;;;;;;;44.17;18.23;;;;;;;1.08;39.94;102939.16;4193014;28;20236;-65
2022/03/20 00:05:40;;;;;;;60.77;20.27;;;;;;;1.11;40.32;102947.88;4187087;28;20330;-65
2022/03/20 00:08:09;;;;;;;53.93;22.57;;;;;;;1.01;41.22;102939.28;4199473;28;20303;-68
2022/03/20 00:10:42;;;;;;;73.60;26.30;;;;;;;0.52;44.47;102944.31;4200790;28;20307;-66
2022/03/20 00:13:09;;;;;;;58.00;23.23;;;;;;;0.19;44.96;102949.03;4210118;28;20231;-68
2022/03/20 00:15:40;;;;;;;68.03;27.03;;;;;;;0.28;45.75;102943.69;4203500;28;20364;-66
2022/03/20 00:18:10;;;;;;;67.03;27.60;;;;;;;0.19;45.62;102938.56;4207965;28;20496;-66
2022/03/20 00:20:39;;;;;;;69.97;29.43;;;;;;;0.05;46.15;102941.31;4187923;28;20256;-67
2022/03/20 00:23:09;;;;;;;56.40;23.30;;;;;;;0.27;44.40;102936.72;4224164;28;20411;-65
2022/03/20 00:25:39;;;;;;;59.83;23.40;;;;;;;0.45;43.68;102938.25;4195199;28;20347;-69
2022/03/20 00:28:05;;;;;;;54.93;23.33;;;;;;;0.54;42.63;102939.88;4208167;28;21232;-66
2022/03/20 00:30:32;;;;;;;55.37;23.13;;;;;;;0.56;42.94;102932.88;4200038;28;21626;-66
2022/03/20 00:32:59;;;;;;;50.30;22.20;;;;;;;0.72;41.67;102929.16;4206010;28;20295;-67
2022/03/20 00:35:25;;;;;;;43.63;17.53;;;;;;;0.81;40.30;102936.06;4203406;28;21219;-66
2022/03/20 00:37:52;;;;;;;36.53;16.73;;;;;;;0.88;39.58;102940.31;4213271;28;21496;-67
2022/03/20 00:40:18;;;;;;;58.50;22.03;;;;;;;1.00;39.40;102937.53;4205523;28;20253;-67
2022/03/20 00:42:45;;;;;;;42.73;16.83;;;;;;;1.06;38.47;102944.47;4202699;28;20307;-66
2022/03/20 00:45:11;;;;;;;35.43;15.87;;;;;;;1.15;38.10;102949.56;4211856;28;20250;-68
2022/03/20 00:47:38;;;;;;;35.40;15.17;;;;;;;1.22;36.84;102945.97;4206138;28;20247;-67
2022/03/20 00:50:05;;;;;;;35.97;15.27;;;;;;;1.27;36.48;102949.38;4198083;28;20774;-65
2022/03/20 00:52:32;;;;;;;36.30;15.87;;;;;;;1.47;36.63;102943.84;4185124;28;21810;-67
2022/03/20 00:54:59;;;;;;;38.07;16.03;;;;;;;1.48;36.30;102944.69;4216045;28;21821;-64
2022/03/20 00:57:25;;;;;;;38.70;15.60;;;;;;;1.57;35.97;102952.44;4203240;28;20235;-66
2022/03/20 00:59:52;;;;;;;40.53;15.70;;;;;;;1.39;36.55;102947.47;4206593;28;20340;-66
2022/03/20 01:02:20;;;;;;;38.77;16.63;;;;;;;1.41;36.52;102943.06;4189825;28;20231;-68
2022/03/20 01:04:48;;;;;;;40.30;16.90;;;;;;;1.32;36.46;102938.81;4198815;28;20249;-65
2022/03/20 01:07:15;;;;;;;44.87;16.73;;;;;;;1.33;36.86;102950.19;4195168;28;20243;-66
2022/03/20 01:09:41;;;;;;;41.73;16.30;;;;;;;1.17;37.10;102947.81;4193019;28;21181;-66
2022/03/20 01:12:08;;;;;;;49.40;19.57;;;;;;;1.24;37.51;102946.81;4204897;28;20292;-68
2022/03/20 01:14:35;;;;;;;46.80;19.53;;;;;;;1.16;37.56;102953.06;4196183;28;22670;-65
2022/03/20 01:17:01;;;;;;;44.27;18.07;;;;;;;0.98;38.65;102951.53;4216394;28;20297;-67
2022/03/20 01:19:28;;;;;;;47.80;19.33;;;;;;;0.86;38.33;102951.72;4214715;28;20702;-65
2022/03/20 01:21:55;;;;;;;42.13;17.63;;;;;;;0.93;38.08;102953.38;4206489;28;23000;-64
2022/03/20 01:24:24;;;;;;;44.73;18.47;;;;;;;0.92;37.80;102949.03;4207306;28;20232;-69
2022/03/20 01:26:51;;;;;;;44.10;16.93;;;;;;;0.97;37.77;102950.69;4195777;28;20346;-65
2022/03/20 01:29:17;;;;;;;43.87;17.20;;;;;;;1.07;37.65;102950.56;4192766;28;20248;-66
2022/03/20 01:31:44;;;;;;;43.53;17.07;;;;;;;1.05;37.30;102945.31;4207110;28;21500;-66
2022/03/20 01:34:11;;;;;;;41.87;16.33;;;;;;;1.08;37.02;102947.94;4216575;28;20251;-68
2022/03/20 01:36:38;;;;;;;52.17;17.63;;;;;;;1.10;37.36;102948.78;4207363;28;20295;-67
2022/03/20 01:39:04;;;;;;;38.57;16.43;;;;;;;1.01;37.82;102938.41;4196247;28;20292;-65
2022/03/20 01:41:31;;;;;;;44.33;17.20;;;;;;;1.04;37.16;102941.00;4198364;28;20990;-67
2022/03/20 01:43:59;;;;;;;41.60;17.07;;;;;;;0.99;38.05;102950.69;4197407;28;21039;-67
2022/03/20 01:46:26;;;;;;;48.30;17.67;;;;;;;0.95;37.83;102946.34;4210161;28;20235;-67
2022/03/20 01:48:53;;;;;;;36.37;15.63;;;;;;;0.91;37.69;102945.50;4189341;28;21459;-66
2022/03/20 01:54:06;;;;;;;54.37;20.70;;;;;;;0.77;38.97;102948.34;4191832;28;20236;-66
2022/03/20 01:56:33;;;;;;;52.37;20.43;;;;;;;0.71;39.69;102940.56;4188406;28;20233;-67
2022/03/20 01:59:03;;;;;;;52.70;21.63;;;;;;;0.55;40.19;102941.63;4197084;28;25811;-67
2022/03/20 02:01:30;;;;;;;49.30;20.10;;;;;;;0.41;41.07;102934.78;4199445;28;20227;-68
2022/03/20 02:03:57;;;;;;;51.97;21.80;;;;;;;0.27;41.58;102935.84;4194699;28;20229;-66
2022/03/20 02:06:25;;;;;;;57.60;21.57;;;;;;;0.20;41.75;102940.28;4190525;28;22976;-64
2022/03/20 02:08:54;;;;;;;55.17;22.40;;;;;;;0.23;41.65;102949.84;4213281;28;20249;-66
2022/03/20 02:11:21;;;;;;;54.10;22.97;;;;;;;0.29;41.81;102942.81;4196673;28;20233;-68
2022/03/20 02:13:48;;;;;;;56.67;23.20;;;;;;;0.21;42.49;102936.75;4187557;28;22224;-66
2022/03/20 02:16:15;;;;;;;65.60;24.80;;;;;;;0.13;43.13;102936.84;4195186;28;20229;-68
2022/03/20 02:18:43;;;;;;;56.50;23.43;;;;;;;-0.03;43.70;102928.28;4194500;28;20246;-66
2022/03/20 02:21:09;;;;;;;60.83;24.67;;;;;;;-0.01;43.48;102934.38;4214624;28;20240;-66
2022/03/20 02:23:36;;;;;;;64.43;24.50;;;;;;;0.01;43.97;102938.75;4196403;28;20233;-67
2022/03/20 02:26:03;;;;;;;60.47;22.47;;;;;;;-0.15;44.00;102938.88;4199450;28;20242;-66
2022/03/20 02:28:30;;;;;;;63.37;24.87;;;;;;;-0.14;44.13;102927.53;4192827;28;20296;-65
2022/03/20 02:30:56;;;;;;;67.60;25.07;;;;;;;-0.16;44.46;102931.94;4197274;28;21682;-67
2022/03/20 02:33:27;;;;;;;70.00;25.27;;;;;;;-0.24;44.28;102929.34;4205200;28;26639;-67
2022/03/20 02:35:55;;;;;;;57.00;23.33;;;;;;;-0.26;44.69;102917.16;4205405;28;20239;-66
2022/03/20 02:38:22;;;;;;;65.33;23.33;;;;;;;-0.35;43.99;102925.09;4202435;28;20653;-67
2022/03/20 02:40:54;;;;;;;58.77;22.77;;;;;;;-0.31;44.19;102922.44;4204061;28;24073;-65
2022/03/20 02:43:21;;;;;;;56.73;24.10;;;;;;;-0.22;44.43;102929.34;4198118;28;20232;-64
2022/03/20 02:45:49;;;;;;;61.20;23.17;;;;;;;-0.23;44.02;102925.00;4197204;28;22207;-63
2022/03/20 02:48:15;;;;;;;58.13;22.37;;;;;;;-0.17;43.23;102924.06;4189434;28;20233;-65
2022/03/20 02:50:42;;;;;;;48.10;20.37;;;;;;;-0.40;43.16;102929.50;4205229;28;21716;-65
2022/03/20 02:53:13;;;;;;;56.07;21.50;;;;;;;-0.30;42.97;102939.91;4202809;28;20233;-66
2022/03/20 02:55:41;;;;;;;63.17;25.20;;;;;;;-0.37;43.88;102940.81;4195163;28;20236;-66
2022/03/20 02:58:10;;;;;;;67.60;25.23;;;;;;;-0.30;44.65;102939.03;4209014;28;20247;-68
2022/03/20 03:00:37;;;;;;;70.10;27.53;;;;;;;-0.37;45.04;102942.59;4194281;28;24169;-65
2022/03/20 03:03:06;;;;;;;66.07;26.27;;;;;;;-0.54;46.68;102925.28;4206309;28;22784;-67
2022/03/20 03:05:33;;;;;;;71.07;26.10;;;;;;;-0.60;46.67;102927.06;4192555;28;20296;-68
2022/03/20 03:11:01;;;;;;;66.40;25.77;;;;;;;-0.59;46.13;102926.19;4202392;28;22618;-64
2022/03/20 03:13:31;;;;;;;62.70;23.83;;;;;;;-0.66;46.22;102927.97;4195347;28;20298;-65
2022/03/20 03:16:03;;;;;;;63.40;23.33;;;;;;;-0.46;45.19;102933.91;4192539;28;20448;-64
2022/03/20 03:18:30;;;;;;;60.17;25.23;;;;;;;-0.49;45.72;102933.94;4193864;28;20963;-63
2022/03/20 03:20:57;;;;;;;69.10;27.10;;;;;;;-0.62;47.30;102937.53;4198807;28;20236;-65
2022/03/20 03:23:27;;;;;;;73.93;28.77;;;;;;;-0.60;47.75;102943.63;4186568;28;20327;-64
2022/03/20 03:25:54;;;;;;;76.70;30.37;;;;;;;-0.57;48.50;102940.97;4192983;28;20240;-64
2022/03/20 03:28:22;;;;;;;78.57;29.73;;;;;;;-0.84;49.07;102942.06;4193047;28;20311;-64
2022/03/20 03:30:49;;;;;;;75.57;29.77;;;;;;;-0.88;48.36;102935.09;4208648;28;20240;-66
2022/03/20 03:33:19;;;;;;;84.27;31.63;;;;;;;-0.87;48.54;102931.59;4186696;28;21254;-66
2022/03/20 03:35:51;;;;;;;73.73;31.13;;;;;;;-0.99;49.12;102932.53;4201265;28;20241;-66
2022/03/20 03:38:21;;;;;;;85.90;31.87;;;;;;;-1.19;50.43;102930.06;4210816;28;20237;-64
2022/03/20 03:40:51;;;;;;;82.97;30.00;;;;;;;-1.25;50.28;102930.06;4177080;28;20241;-63
2022/03/20 03:43:18;;;;;;;73.80;28.03;;;;;;;-1.14;49.76;102937.88;4193578;28;22586;-64
2022/03/20 03:45:46;;;;;;;78.53;29.93;;;;;;;-1.06;49.86;102936.06;4198218;28;20255;-64
2022/03/20 03:48:14;;;;;;;85.57;32.07;;;;;;;-1.30;51.31;102935.31;4196939;28;20345;-66
2022/03/20 03:50:42;;;;;;;82.30;30.17;;;;;;;-1.38;50.88;102931.88;4191763;28;20237;-63
2022/03/20 03:53:09;;;;;;;76.87;29.17;;;;;;;-1.39;50.94;102934.50;4205232;28;21007;-64
2022/03/20 03:55:37;;;;;;;82.93;29.80;;;;;;;-1.45;51.47;102931.91;4180499;28;20229;-66
2022/03/20 03:58:04;;;;;;;79.57;30.67;;;;;;;-1.37;50.57;102923.16;4198260;28;20237;-66
2022/03/20 04:00:34;;;;;;;69.30;28.83;;;;;;;-1.35;50.59;102934.47;4192922;28;21760;-63
2022/03/20 04:03:01;;;;;;;75.77;28.13;;;;;;;-1.28;50.09;102930.97;4212924;28;25855;-66
2022/03/20 04:05:28;;;;;;;86.00;30.80;;;;;;;-1.19;50.90;102942.25;4201092;28;20244;-64
2022/03/20 04:07:55;;;;;;;87.33;32.87;;;;;;;-1.32;51.04;102947.50;4214041;28;21211;-66
2022/03/20 04:10:23;;;;;;;84.57;31.63;;;;;;;-1.46;51.66;102945.84;4192998;28;20233;-64
2022/03/20 04:12:49;;;;;;;84.47;29.90;;;;;;;-1.53;52.24;102948.47;4199782;28;20233;-64
2022/03/20 04:15:21;;;;;;;93.57;32.00;;;;;;;-1.49;52.05;102941.50;4199555;28;24152;-66
2022/03/20 04:17:48;;;;;;;86.23;31.87;;;;;;;-1.42;51.31;102947.56;4214788;28;21372;-63
2022/03/20 04:20:15;;;;;;;85.87;32.07;;;;;;;-1.45;51.63;102943.25;4191170;28;20248;-65
2022/03/20 04:23:45;;;;;;;80.60;30.33;;;;;;;-1.55;51.77;102947.59;4188992;28;20244;-66
2022/03/20 04:25:33;;;;;;;76.17;29.60;;;;;;;-1.44;51.24;102944.09;4183409;28;20456;-63
2022/03/20 04:28:00;;;;;;;79.57;29.63;;;;;;;-1.49;51.74;102938.91;4198464;28;20332;-65
2022/03/20 04:30:28;;;;;;;84.43;29.50;;;;;;;-1.45;51.44;102947.56;4180970;28;20227;-64
2022/03/20 04:32:56;;;;;;;76.27;29.43;;;;;;;-1.45;51.30;102950.19;4193793;28;21300;-66
2022/03/20 04:35:23;;;;;;;78.67;30.53;;;;;;;-1.50;51.79;102947.59;4188231;28;20303;-64
2022/03/20 04:37:53;;;;;;;77.40;29.10;;;;;;;-1.32;51.24;102947.50;4194928;28;20908;-64
2022/03/20 04:40:20;;;;;;;81.63;30.13;;;;;;;-1.30;50.91;102948.38;4194810;28;20232;-64
2022/03/20 04:42:49;;;;;;;78.27;27.90;;;;;;;-1.37;50.29;102945.81;4190568;28;21772;-67
2022/03/20 04:45:15;;;;;;;72.97;27.60;;;;;;;-1.35;50.57;102950.16;4191184;28;20233;-67
2022/03/20 04:58:46;;;;;;;61.23;24.97;;;;;;;-1.42;49.95;102958.03;4210272;28;21657;-66
2022/03/20 05:01:17;;;;;;;59.17;23.30;;;;;;;-1.35;48.97;102965.81;4203466;28;20688;-66
2022/03/20 05:03:44;;;;;;;64.43;26.00;;;;;;;-1.17;48.51;102964.88;4216203;28;20229;-67
2022/03/20 05:06:10;;;;;;;67.83;25.27;;;;;;;-1.14;47.45;102969.22;4229350;28;21614;-65
2022/03/20 05:08:37;;;;;;;56.43;21.77;;;;;;;-1.06;46.29;102973.50;4180407;28;20292;-65
2022/03/20 05:13:49;;;;;;;54.57;22.50;;;;;;;-0.92;45.65;102973.44;4207235;28;20749;-64
2022/03/20 05:16:16;;;;;;;52.13;22.10;;;;;;;-0.92;45.96;102969.97;4186033;28;20732;-65
2022/03/20 05:18:42;;;;;;;54.00;22.43;;;;;;;-0.82;46.29;102973.38;4198728;28;20242;-66
2022/03/20 05:21:10;;;;;;;62.80;22.63;;;;;;;-0.84;45.71;102983.88;4215884;28;21081;-65
2022/03/20 05:23:39;;;;;;;58.47;24.47;;;;;;;-0.71;46.45;102989.88;4209030;28;20415;-66
2022/03/20 05:26:05;;;;;;;61.83;24.60;;;;;;;-0.69;46.47;102988.13;4175462;28;20325;-66
2022/03/20 05:28:32;;;;;;;65.60;24.30;;;;;;;-0.68;46.73;102989.84;4188147;28;20238;-65
2022/03/20 05:30:59;;;;;;;63.47;25.23;;;;;;;-0.52;46.07;102991.50;4192617;28;20238;-64
2022/03/20 05:33:26;;;;;;;64.37;24.43;;;;;;;-0.57;46.59;102993.28;4176931;28;22188;-63
2022/03/20 05:35:52;;;;;;;74.00;26.60;;;;;;;-0.50;46.46;102994.97;4184697;28;20242;-66
2022/03/20 05:38:19;;;;;;;75.07;25.40;;;;;;;-0.51;46.23;102998.47;4185630;28;20289;-65
2022/03/20 05:40:46;;;;;;;69.13;26.73;;;;;;;-0.38;46.08;102995.75;4175174;28;20229;-66
2022/03/20 05:43:14;;;;;;;65.63;25.63;;;;;;;-0.30;46.53;102992.22;4204374;28;20381;-66
2022/03/20 05:45:40;;;;;;;52.10;21.77;;;;;;;-0.31;44.39;103000.06;4186534;28;20254;-66
2022/03/20 05:48:08;;;;;;;51.87;21.53;;;;;;;-0.26;44.86;103003.50;4201540;28;20546;-64
2022/03/20 05:50:35;;;;;;;53.80;19.03;;;;;;;-0.09;42.89;103009.50;4174728;28;22707;-64
2022/03/20 05:53:02;;;;;;;54.73;23.10;;;;;;;0.05;43.86;103005.88;4197304;28;21658;-65
2022/03/20 05:58:17;;;;;;;44.97;18.77;;;;;;;0.11;42.37;103014.53;4191408;28;20231;-64
2022/03/20 06:00:43;;;;;;;48.60;19.33;;;;;;;0.31;41.53;103018.75;4175608;28;20235;-65
2022/03/20 06:03:10;;;;;;;48.53;19.03;;;;;;;0.47;41.09;103019.44;4191553;28;20233;-64
2022/03/20 06:05:38;;;;;;;39.23;17.40;;;;;;;0.45;41.27;103029.94;4149358;28;20233;-64
2022/03/20 06:08:05;;;;;;;47.73;17.67;;;;;;;0.51;40.71;103031.63;4203213;28;20224;-65
2022/03/20 06:10:33;;;;;;;39.23;15.23;;;;;;;0.73;38.78;103027.03;4191577;28;20408;-64
2022/03/20 06:13:03;;;;;;;36.30;14.53;;;;;;;0.86;37.10;103039.09;4176852;28;20355;-65
2022/03/20 06:15:29;;;;;;;36.23;14.47;;;;;;;0.99;36.93;103039.81;4177373;28;20372;-65
2022/03/20 06:17:55;;;;;;;36.17;14.23;;;;;;;1.09;36.68;103037.94;4193780;28;20674;-64
2022/03/20 06:20:22;;;;;;;38.47;14.30;;;;;;;1.21;36.36;103043.88;4185729;28;21390;-65
2022/03/20 06:22:49;;;;;;;32.50;14.20;;;;;;;1.36;35.47;103042.81;4190324;28;20428;-64
2022/03/20 06:25:16;;;;;;;33.97;13.60;;;;;;;1.42;35.80;103041.84;4176308;28;20226;-65
2022/03/20 06:27:51;;;;;;;35.57;13.87;;;;;;;1.54;35.40;103041.69;4179029;28;20245;-66
2022/03/20 06:30:19;;;;;;;38.77;13.73;;;;;;;1.69;35.06;103051.09;4187062;28;20252;-65
2022/03/20 06:32:48;;;;;;;36.83;13.13;;;;;;;1.90;34.75;103055.16;4187497;28;20226;-66
2022/03/20 06:35:18;;;;;;;31.10;13.50;;;;;;;1.98;33.81;103050.63;4174063;28;20327;-65
2022/03/20 06:37:50;;;;;;;33.83;12.60;;;;;;;2.03;33.50;103058.44;4183013;28;22085;-66
2022/03/20 06:40:17;;;;;;;33.00;13.63;;;;;;;2.05;33.45;103057.50;4170320;28;20291;-66
2022/03/20 06:42:44;;;;;;;32.13;12.80;;;;;;;2.25;32.92;103061.59;4178770;28;20230;-66
2022/03/20 06:45:11;;;;;;;35.33;13.67;;;;;;;2.29;33.03;103065.88;4197625;28;20240;-66
2022/03/20 06:47:40;;;;;;;26.27;11.83;;;;;;;2.42;32.74;103070.03;4198902;28;20342;-65
2022/03/20 06:50:08;;;;;;;26.60;11.77;;;;;;;2.54;31.90;103067.16;4188577;28;21922;-66
2022/03/20 06:52:38;;;;;;;27.53;11.90;;;;;;;2.61;31.63;103069.69;4174630;28;20225;-68
2022/03/20 06:55:06;;;;;;;29.87;11.83;;;;;;;2.69;31.79;103067.78;4198798;28;20236;-66
2022/03/20 06:57:32;;;;;;;26.53;11.37;;;;;;;2.90;31.83;103070.00;4183800;28;21753;-68
2022/03/20 07:00:00;;;;;;;24.60;10.93;;;;;;;3.05;31.13;103081.13;4205990;28;20244;-67
2022/03/20 07:02:27;;;;;;;24.90;10.00;;;;;;;3.16;30.16;103080.00;4188207;28;20237;-67
2022/03/20 07:04:53;;;;;;;23.53;10.40;;;;;;;3.14;29.79;103080.94;4212330;28;23465;-67
2022/03/20 07:07:23;;;;;;;28.37;10.53;;;;;;;3.24;30.01;103078.97;4211159;28;20298;-69
2022/03/20 07:09:50;;;;;;;26.57;10.10;;;;;;;3.34;29.65;103083.97;4180945;28;20242;-68
2022/03/20 07:12:17;;;;;;;20.20;9.83;;;;;;;3.52;29.76;103087.13;4203309;28;25220;-69
2022/03/20 07:14:43;;;;;;;22.20;10.23;;;;;;;3.70;29.09;103094.63;4200421;28;20242;-68
2022/03/20 07:17:24;;;;;;;21.00;9.23;;;;;;;3.93;29.40;103080.03;4190953;28;20348;-67
2022/03/20 07:19:51;;;;;;;24.20;10.37;;;;;;;4.14;28.75;103074.22;4180125;28;23079;-67
2022/03/20 07:22:19;;;;;;;21.80;9.67;;;;;;;4.47;27.91;103082.19;4198707;28;20724;-67
2022/03/20 07:24:48;;;;;;;24.77;10.50;;;;;;;4.49;28.05;103080.38;4194020;28;21867;-69
2022/03/20 07:30:03;;;;;;;26.13;10.83;;;;;;;5.43;27.34;103088.28;4214889;28;20326;-69
2022/03/20 07:32:29;;;;;;;22.93;10.43;;;;;;;6.06;25.58;103073.13;4203514;28;20414;-72
2022/03/20 07:34:56;;;;;;;22.90;10.13;;;;;;;7.05;23.64;103089.97;4193316;28;21072;-68
2022/03/20 07:37:22;;;;;;;21.00;9.87;;;;;;;9.94;21.18;103091.72;4203261;28;20226;-69
2022/03/20 07:39:51;;;;;;;25.57;10.37;;;;;;;12.48;18.25;103102.00;4220883;28;21222;-69
2022/03/20 07:42:18;;;;;;;22.20;10.00;;;;;;;13.61;16.45;103114.66;4243272;28;20313;-67
2022/03/20 07:44:46;;;;;;;24.07;9.60;;;;;;;16.87;13.57;103117.34;4193073;28;20241;-66
2022/03/20 07:47:20;;;;;;;23.40;10.33;;;;;;;18.16;12.50;103119.50;4186395;28;20339;-68
2022/03/20 07:49:53;;;;;;;19.63;10.00;;;;;;;20.62;11.22;103133.59;4209314;28;20241;-70
2022/03/20 07:52:19;;;;;;;23.63;9.60;;;;;;;21.42;9.67;103134.09;4184438;28;21276;-69
2022/03/20 07:54:46;;;;;;;18.10;8.83;;;;;;;21.68;9.31;103133.34;4204113;28;20593;-70
2022/03/20 07:57:15;;;;;;;17.97;9.87;;;;;;;20.84;9.00;103128.88;4183254;28;20277;-72
2022/03/20 07:59:44;;;;;;;17.67;9.43;;;;;;;20.01;10.06;103129.34;4200988;28;21521;-77
2022/03/20 08:02:11;;;;;;;17.37;9.40;;;;;;;18.64;10.71;103118.16;4192518;28;22103;-72
2022/03/20 08:04:37;;;;;;;22.23;10.13;;;;;;;20.84;9.45;103134.28;4185972;28;20230;-73
2022/03/20 08:07:05;;;;;;;26.30;9.90;;;;;;;20.77;9.33;103133.16;4234784;28;20244;-73
2022/03/20 08:09:31;;;;;;;19.23;8.97;;;;;;;20.04;9.84;103141.72;4208161;28;20281;-71
2022/03/20 08:11:58;;;;;;;19.17;9.53;;;;;;;20.11;9.29;103134.78;4208602;28;20711;-73
2022/03/20 08:14:27;;;;;;;17.00;9.10;;;;;;;19.33;9.94;103136.41;4192151;28;20804;-72
2022/03/20 08:16:53;;;;;;;15.90;8.40;;;;;;;18.95;10.10;103135.25;4218934;28;21288;-72
2022/03/20 08:19:23;;;;;;;19.00;9.13;;;;;;;19.74;9.74;103138.13;4205075;28;20237;-71
2022/03/20 08:21:50;;;;;;;18.23;8.43;;;;;;;18.84;9.92;103133.47;4192247;28;20276;-70
2022/03/20 08:24:17;;;;;;;15.10;8.03;;;;;;;19.18;10.01;103134.09;4235992;28;23405;-71
2022/03/20 08:26:44;;;;;;;16.47;8.83;;;;;;;19.86;9.60;103135.31;4225079;28;20387;-73
2022/03/20 08:29:13;;;;;;;16.13;8.60;;;;;;;18.76;10.05;103125.19;4214186;28;20673;-72
2022/03/20 08:31:44;;;;;;;18.50;7.73;;;;;;;19.66;10.18;103131.69;4199121;28;21501;-74
2022/03/20 08:34:12;;;;;;;24.37;9.57;;;;;;;20.10;9.41;103143.00;4226432;28;20235;-73
2022/03/20 08:36:39;;;;;;;19.83;9.90;;;;;;;19.15;10.17;103130.78;4215681;28;20284;-71
2022/03/20 08:39:06;;;;;;;16.20;9.03;;;;;;;17.75;10.50;103125.59;4201217;28;20244;-73
2022/03/20 08:41:34;;;;;;;21.67;9.83;;;;;;;16.28;11.65;103114.72;4216543;28;21321;-74
2022/03/20 08:44:04;;;;;;;18.83;8.83;;;;;;;15.19;13.19;103114.66;4244393;28;22248;-75
2022/03/20 08:46:32;;;;;;;26.40;9.57;;;;;;;14.58;13.42;103103.72;4201823;28;21249;-75
2022/03/20 08:49:03;;;;;;;15.23;8.30;;;;;;;13.08;14.39;103101.84;4209096;28;20266;-75
2022/03/20 08:51:31;;;;;;;20.23;9.07;;;;;;;11.98;15.46;103097.81;4218186;28;21133;-74
2022/03/20 08:53:58;;;;;;;17.13;8.63;;;;;;;11.55;15.97;103090.41;4213822;28;22239;-75
2022/03/20 08:56:25;;;;;;;22.37;9.00;;;;;;;11.72;16.27;103089.47;4182391;28;22306;-75
2022/03/20 08:58:52;;;;;;;15.03;8.27;;;;;;;11.78;16.44;103097.13;4197917;28;20250;-72
2022/03/20 09:01:20;;;;;;;19.60;8.77;;;;;;;11.56;15.87;103091.28;4231285;28;20233;-73
2022/03/20 09:03:50;;;;;;;18.80;9.20;;;;;;;10.95;16.88;103083.03;4199660;28;20296;-76
2022/03/20 09:06:21;;;;;;;25.00;10.33;;;;;;;11.49;16.16;103089.91;4191252;28;20230;-75
2022/03/20 09:08:51;;;;;;;20.67;9.93;;;;;;;11.41;16.11;103088.53;4232605;28;20241;-74
2022/03/20 09:11:18;;;;;;;20.73;9.73;;;;;;;11.45;16.42;103089.22;4213925;28;20232;-75
2022/03/20 09:13:45;;;;;;;18.77;9.63;;;;;;;11.53;16.23;103080.78;4217303;28;20260;-72
2022/03/20 09:18:59;;;;;;;20.17;9.80;;;;;;;11.09;17.25;103076.09;4201009;28;26054;-72
2022/03/20 09:21:28;;;;;;;22.37;10.43;;;;;;;11.40;16.69;103080.59;4209359;28;20451;-71
2022/03/20 09:23:55;;;;;;;20.97;10.30;;;;;;;11.21;17.03;103080.75;4197573;28;23502;-71
2022/03/20 09:26:21;;;;;;;20.00;10.43;;;;;;;10.91;17.52;103073.50;4189448;28;21534;-78
2022/03/20 09:28:52;;;;;;;21.30;9.90;;;;;;;11.04;17.85;103073.69;4216927;28;20233;-70
2022/03/20 09:31:19;;;;;;;21.83;9.33;;;;;;;11.56;16.85;103075.28;4216257;28;21988;-74
2022/03/20 09:33:47;;;;;;;22.47;9.90;;;;;;;10.68;17.02;103071.19;4192128;28;21423;-72
2022/03/20 09:36:16;;;;;;;18.50;8.47;;;;;;;10.26;17.71;103061.78;4198253;28;20329;-76
2022/03/20 09:38:43;;;;;;;21.47;9.57;;;;;;;10.69;17.91;103070.25;4218140;28;21722;-72
2022/03/20 09:41:11;;;;;;;18.73;9.37;;;;;;;10.54;17.09;103058.59;4215071;28;20764;-77
2022/03/20 09:43:43;;;;;;;20.97;9.37;;;;;;;10.22;17.65;103062.88;4234462;28;20224;-73
2022/03/20 09:46:15;;;;;;;17.80;9.80;;;;;;;10.48;17.69;103058.91;4195413;28;21305;-76
2022/03/20 09:48:42;;;;;;;21.93;9.80;;;;;;;10.62;17.61;103061.72;4204185;28;21865;-75
2022/03/20 09:51:09;;;;;;;21.80;9.50;;;;;;;10.73;17.79;103054.00;4196119;28;20294;-75
2022/03/20 09:53:36;;;;;;;20.23;9.30;;;;;;;10.75;17.59;103052.13;4212632;28;20315;-73
2022/03/20 09:56:05;;;;;;;19.10;9.57;;;;;;;10.62;17.68;103050.19;4217247;28;22496;-75
2022/03/20 09:58:32;;;;;;;16.77;8.60;;;;;;;10.48;17.21;103045.59;4210932;28;20401;-73
2022/03/20 10:01:01;;;;;;;17.90;8.47;;;;;;;10.52;17.06;103053.34;4232244;28;20320;-72
2022/03/20 10:03:29;;;;;;;18.10;8.30;;;;;;;10.54;18.52;103050.63;4197440;28;20303;-74
2022/03/20 10:06:16;;;;;;;20.87;8.87;;;;;;;10.40;17.90;103051.31;4210325;28;20245;-70
2022/03/20 10:08:55;;;;;;;21.83;8.87;;;;;;;10.09;18.39;103046.66;4212746;28;24294;-69
2022/03/20 10:11:22;;;;;;;20.60;9.50;;;;;;;10.26;18.11;103048.50;4222696;28;20307;-71
2022/03/20 10:14:11;;;;;;;21.50;9.53;;;;;;;10.24;18.10;103039.72;4178356;28;20315;-71
2022/03/20 10:16:40;;;;;;;19.93;9.40;;;;;;;10.35;18.15;103042.72;4199527;28;20233;-71
2022/03/20 10:19:40;;;;;;;22.93;8.60;;;;;;;10.48;18.18;103038.47;4204315;28;20244;-71
2022/03/20 10:22:12;;;;;;;18.83;8.73;;;;;;;10.39;18.29;103040.75;4175299;28;20238;-69
2022/03/20 10:24:40;;;;;;;15.67;7.97;;;;;;;10.05;18.49;103030.00;4188393;28;20241;-72
2022/03/20 10:27:10;;;;;;;16.03;8.10;;;;;;;10.13;18.78;103027.81;4206780;28;20346;-73
2022/03/20 10:29:50;;;;;;;17.47;8.47;;;;;;;10.26;18.03;103029.84;4195485;28;21792;-73
2022/03/20 10:32:17;;;;;;;16.23;8.50;;;;;;;10.41;18.19;103026.41;4190592;28;20442;-78
2022/03/20 10:34:59;;;;;;;18.17;8.30;;;;;;;10.33;18.02;103026.81;4183708;28;21205;-70
2022/03/20 10:37:45;;;;;;;16.50;8.27;;;;;;;10.45;17.88;103012.00;4186145;28;20415;-74
2022/03/20 10:40:26;;;;;;;15.10;7.37;;;;;;;10.44;17.73;103017.41;4218579;28;20310;-71
2022/03/20 10:43:06;;;;;;;13.90;7.57;;;;;;;10.28;17.83;103020.00;4193627;28;20296;-69
2022/03/20 10:46:00;;;;;;;16.40;7.63;;;;;;;10.01;17.71;103015.13;4208569;28;20240;-69
2022/03/20 10:48:42;;;;;;;16.40;7.90;;;;;;;10.03;18.31;103020.38;4190582;28;22006;-69
2022/03/20 10:51:10;;;;;;;14.70;7.90;;;;;;;10.32;17.92;103022.44;4207340;28;20692;-71
2022/03/20 10:53:55;;;;;;;17.27;7.50;;;;;;;10.45;17.40;103017.34;4180920;28;20361;-71
2022/03/20 10:56:23;;;;;;;13.77;7.50;;;;;;;10.57;17.31;103019.34;4197896;28;21234;-72
2022/03/20 10:58:50;;;;;;;17.70;7.60;;;;;;;10.45;17.62;103022.66;4205634;28;20228;-70
2022/03/20 11:01:36;;;;;;;14.83;7.33;;;;;;;9.92;17.81;103015.59;4210579;28;23050;-69
2022/03/20 11:04:08;;;;;;;15.20;7.13;;;;;;;9.88;18.45;103012.25;4182963;28;20624;-70
2022/03/20 11:06:35;;;;;;;12.40;7.03;;;;;;;9.76;18.70;103006.66;4189659;28;21062;-72
2022/03/20 11:09:04;;;;;;;15.00;7.17;;;;;;;10.06;18.55;103006.91;4203804;28;20502;-69
2022/03/20 11:11:37;;;;;;;15.53;7.03;;;;;;;10.34;18.83;103012.56;4209989;28;20408;-75
2022/03/20 11:14:04;;;;;;;12.83;7.23;;;;;;;10.28;18.17;103006.69;4198800;28;20311;-67
2022/03/20 11:16:35;;;;;;;14.93;7.73;;;;;;;9.98;18.44;102988.69;4205060;28;20494;-69
2022/03/20 11:19:08;;;;;;;16.27;7.50;;;;;;;10.27;18.59;102981.00;4200201;28;20303;-73
2022/03/20 11:21:37;;;;;;;13.67;6.97;;;;;;;10.61;18.07;102985.44;4198117;28;20713;-64
2022/03/20 11:24:04;;;;;;;12.43;6.87;;;;;;;10.84;17.56;102986.88;4206809;28;20243;-67
2022/03/20 11:26:32;;;;;;;13.33;7.63;;;;;;;10.87;17.27;102976.03;4204531;28;20240;-68
2022/03/20 11:29:01;;;;;;;18.53;7.70;;;;;;;10.88;17.33;102975.06;4210408;28;20282;-71
2022/03/20 11:31:32;;;;;;;16.93;7.27;;;;;;;10.81;17.20;102979.03;4221986;28;20236;-68
2022/03/20 11:33:59;;;;;;;14.03;7.63;;;;;;;10.82;17.60;102972.75;4208308;28;20410;-68
2022/03/20 11:36:25;;;;;;;14.60;7.37;;;;;;;10.91;17.19;102960.72;4207069;28;20339;-70
2022/03/20 11:39:09;;;;;;;12.53;7.10;;;;;;;10.56;17.62;102961.72;4217299;28;20242;-70
2022/03/20 11:41:36;;;;;;;13.80;7.00;;;;;;;10.25;17.86;102958.94;4205240;28;22113;-70
2022/03/20 11:44:14;;;;;;;13.30;7.00;;;;;;;10.21;17.86;102960.91;4196388;28;21273;-68
2022/03/20 11:46:44;;;;;;;14.30;7.23;;;;;;;10.35;17.65;102954.88;4215314;28;20244;-70
2022/03/20 11:49:22;;;;;;;18.97;7.80;;;;;;;10.40;17.63;102947.53;4195373;28;21235;-68